Archival Weather

Sydney Intl

Sydney, Australia (YSSY)

Report from: Saturday, March 18, 2023 3:00 AM AEDT
Current time: Sunday, July 14, 2024 11:43 AM AEST

Current weather – Weather history – Daily summaries
Weather forecast

Temperature22.0°C (71.6°F)
Dew point20.0°C (68.0°F)
Winds 5 kts (2.6 m/s, 5.8 mph) North-Northwest (330°)
Visibility6.2 mi. (10 km)
Clouds Few clouds 1,700 ft. (518 m)
Altimeter30.03 in.Hg (1017 mB)
Relative humidity88 %
Density altitude1,006 ft. (307 m)
Flight conditions Visual Meteorological Conditions
Raw dataYSSY 171600Z 33005KT 9999 FEW017 22/20 Q1017
An error has occurred. This application may no longer respond until reloaded. Reload 🗙